createdAt,value
2023-03-19T00:00:37.928Z,4.35
2023-03-19T00:03:05.958Z,4.82
2023-03-19T00:05:33.986Z,4.68
2023-03-19T00:08:03.339Z,4.85
2023-03-19T00:10:31.243Z,4.90
2023-03-19T00:12:59.051Z,5.63
2023-03-19T00:15:26.932Z,5.88
2023-03-19T00:17:56.594Z,5.20
2023-03-19T00:20:24.516Z,5.78
2023-03-19T00:22:52.351Z,5.75
2023-03-19T00:25:24.678Z,5.05
2023-03-19T00:27:52.884Z,6.45
2023-03-19T00:30:20.777Z,5.60
2023-03-19T00:32:49.211Z,6.43
2023-03-19T00:35:17.494Z,6.82
2023-03-19T00:37:45.425Z,5.63
2023-03-19T00:40:14.059Z,5.50
2023-03-19T00:42:44.787Z,6.10
2023-03-19T00:45:13.828Z,5.35
2023-03-19T00:47:42.198Z,5.18
2023-03-19T00:50:11.656Z,5.35
2023-03-19T00:52:39.547Z,5.70
2023-03-19T00:55:08.141Z,5.40
2023-03-19T00:57:37.100Z,6.65
2023-03-19T01:00:08.695Z,5.15
2023-03-19T01:02:36.516Z,6.38
2023-03-19T01:05:04.546Z,5.35
2023-03-19T01:07:32.626Z,5.45
2023-03-19T01:10:00.399Z,5.55
2023-03-19T01:12:28.839Z,5.65
2023-03-19T01:14:56.698Z,5.50
2023-03-19T01:17:26.091Z,5.85
2023-03-19T01:19:53.872Z,6.22
2023-03-19T01:22:21.778Z,6.13
2023-03-19T01:24:55.316Z,6.78
2023-03-19T01:27:23.356Z,6.50
2023-03-19T01:29:52.128Z,7.50
2023-03-19T01:32:46.961Z,5.00
2023-03-19T01:35:33.524Z,6.13
2023-03-19T01:38:01.590Z,6.88
2023-03-19T01:40:30.187Z,6.55
2023-03-19T01:43:13.011Z,5.05
2023-03-19T01:45:49.951Z,5.13
2023-03-19T01:48:47.624Z,5.97
2023-03-19T01:51:21.886Z,5.55
2023-03-19T01:54:21.901Z,5.50
2023-03-19T01:57:17.282Z,6.22
2023-03-19T02:00:06.291Z,6.30
2023-03-19T02:02:49.642Z,6.38
2023-03-19T02:05:46.267Z,6.15
2023-03-19T02:08:17.499Z,5.47
2023-03-19T02:10:48.479Z,5.78
2023-03-19T02:13:17.172Z,4.82
2023-03-19T02:15:45.401Z,6.15
2023-03-19T02:18:14.380Z,5.40
2023-03-19T02:20:50.728Z,5.80
2023-03-19T02:23:29.026Z,6.57
2023-03-19T02:26:08.081Z,6.28
2023-03-19T02:28:39.465Z,5.18
2023-03-19T02:31:08.234Z,6.07
2023-03-19T02:33:36.651Z,6.13
2023-03-19T02:36:07.953Z,6.53
2023-03-19T02:38:35.908Z,5.07
2023-03-19T02:41:07.283Z,4.72
2023-03-19T02:43:37.326Z,5.45
2023-03-19T02:46:08.213Z,5.57
2023-03-19T02:48:36.636Z,4.10
2023-03-19T02:51:04.458Z,5.72
2023-03-19T02:53:32.636Z,5.82
2023-03-19T02:56:00.469Z,4.47
2023-03-19T02:58:29.695Z,4.80
2023-03-19T03:00:57.587Z,5.22
2023-03-19T03:03:25.694Z,5.10
2023-03-19T03:05:53.561Z,6.35
2023-03-19T03:08:21.799Z,5.45
2023-03-19T03:10:49.625Z,5.32
2023-03-19T03:13:17.725Z,7.03
2023-03-19T03:15:46.913Z,5.32
2023-03-19T03:18:14.744Z,4.97
2023-03-19T03:20:43.262Z,5.50
2023-03-19T03:23:11.523Z,4.88
2023-03-19T03:25:45.367Z,4.93
2023-03-19T03:28:13.196Z,4.70
2023-03-19T03:30:41.637Z,7.55
2023-03-19T03:33:10.861Z,6.55
2023-03-19T03:35:38.765Z,4.85
2023-03-19T03:38:07.108Z,4.60
2023-03-19T03:40:36.643Z,4.43
2023-03-19T03:43:04.760Z,4.68
2023-03-19T03:45:35.124Z,7.13
2023-03-19T03:48:03.429Z,4.25
2023-03-19T03:50:32.831Z,4.68
2023-03-19T03:53:05.740Z,4.18
2023-03-19T03:55:34.140Z,4.45
2023-03-19T03:58:02.196Z,3.58
2023-03-19T04:00:30.449Z,4.88
2023-03-19T04:02:59.259Z,4.88
2023-03-19T04:05:27.470Z,5.28
2023-03-19T04:07:57.084Z,3.65
2023-03-19T04:10:25.263Z,4.32
2023-03-19T04:12:52.993Z,4.82
2023-03-19T04:15:20.898Z,4.40
2023-03-19T04:17:49.692Z,3.63
2023-03-19T04:20:25.516Z,4.78
2023-03-19T04:22:53.379Z,4.05
2023-03-19T04:25:22.759Z,5.45
2023-03-19T04:27:50.594Z,4.78
2023-03-19T04:30:18.936Z,5.20
2023-03-19T04:32:47.609Z,5.95
2023-03-19T04:35:16.370Z,4.15
2023-03-19T04:37:48.533Z,5.55
2023-03-19T04:40:18.387Z,4.57
2023-03-19T04:42:47.858Z,4.03
2023-03-19T04:45:29.271Z,4.22
2023-03-19T04:47:57.215Z,4.03
2023-03-19T04:50:25.435Z,4.03
2023-03-19T04:52:54.667Z,3.80
2023-03-19T04:55:23.624Z,3.60
2023-03-19T04:58:01.479Z,4.63
2023-03-19T05:00:31.476Z,4.72
2023-03-19T05:03:00.154Z,4.00
2023-03-19T05:05:30.337Z,3.22
2023-03-19T05:07:58.827Z,4.10
2023-03-19T05:10:27.382Z,4.18
2023-03-19T05:12:55.733Z,3.65
2023-03-19T05:15:24.982Z,4.05
2023-03-19T05:18:00.330Z,4.68
2023-03-19T05:20:37.683Z,3.92
2023-03-19T05:23:09.145Z,3.47
2023-03-19T05:25:47.646Z,3.90
2023-03-19T05:28:20.914Z,4.03
2023-03-19T05:30:50.480Z,3.60
2023-03-19T05:33:25.715Z,3.75
2023-03-19T05:35:56.438Z,3.28
2023-03-19T05:38:34.640Z,3.35
2023-03-19T05:41:08.597Z,2.75
2023-03-19T05:43:51.354Z,2.72
2023-03-19T05:49:04.531Z,3.17
2023-03-19T05:51:32.795Z,3.38
2023-03-19T05:54:00.838Z,3.53
2023-03-19T05:57:01.460Z,3.25
2023-03-19T05:59:32.312Z,2.85
2023-03-19T06:02:16.045Z,3.03
2023-03-19T06:04:44.294Z,3.10
2023-03-19T06:07:12.587Z,2.85
2023-03-19T06:09:41.147Z,2.90
2023-03-19T06:12:09.302Z,3.15
2023-03-19T06:14:57.584Z,2.85
2023-03-19T06:17:50.056Z,2.97
2023-03-19T06:20:18.981Z,2.10
2023-03-19T06:22:47.265Z,2.88
2023-03-19T06:25:15.121Z,3.10
2023-03-19T06:27:43.785Z,3.05
2023-03-19T06:30:41.270Z,3.20
2023-03-19T06:33:32.181Z,3.72
2023-03-19T06:36:00.911Z,2.30
2023-03-19T06:38:31.404Z,3.13
2023-03-19T06:41:01.612Z,2.95
2023-03-19T06:43:29.445Z,4.13
2023-03-19T06:45:57.524Z,3.53
2023-03-19T06:48:25.366Z,2.63
2023-03-19T06:50:54.481Z,2.97
2023-03-19T06:53:22.328Z,3.63
2023-03-19T06:55:50.458Z,2.42
2023-03-19T06:58:18.489Z,2.42
2023-03-19T07:00:46.461Z,1.73
2023-03-19T07:03:14.909Z,2.60
2023-03-19T07:05:42.665Z,3.13
2023-03-19T07:08:12.643Z,3.60
2023-03-19T07:10:40.758Z,3.00
2023-03-19T07:13:09.009Z,3.33
2023-03-19T07:15:37.335Z,2.97
2023-03-19T07:18:05.545Z,2.72
2023-03-19T07:20:33.777Z,3.88
2023-03-19T07:23:01.834Z,2.30
2023-03-19T07:25:31.273Z,2.08
2023-03-19T07:27:59.116Z,2.45
2023-03-19T07:30:27.064Z,3.08
2023-03-19T07:32:56.110Z,3.60
2023-03-19T07:35:23.880Z,2.42
2023-03-19T07:37:51.680Z,2.58
2023-03-19T07:40:19.595Z,2.88
2023-03-19T07:42:48.965Z,2.47
2023-03-19T07:45:16.800Z,2.28
2023-03-19T07:47:44.600Z,2.88
2023-03-19T07:50:12.689Z,2.30
2023-03-19T07:52:40.580Z,3.17
2023-03-19T07:55:08.913Z,2.85
2023-03-19T07:57:36.693Z,2.60
2023-03-19T08:00:06.863Z,2.17
2023-03-19T08:02:40.920Z,2.75
2023-03-19T08:05:09.604Z,3.45
2023-03-19T08:07:37.914Z,2.00
2023-03-19T08:10:36.275Z,2.10
2023-03-19T08:13:05.348Z,2.20
2023-03-19T08:15:34.879Z,2.40
2023-03-19T08:18:04.915Z,2.58
2023-03-19T08:20:33.744Z,3.45
2023-03-19T08:23:01.722Z,2.53
2023-03-19T08:25:32.449Z,3.08
2023-03-19T08:28:00.939Z,4.10
2023-03-19T08:30:29.426Z,2.45
2023-03-19T08:32:59.308Z,3.08
2023-03-19T08:35:27.982Z,2.50
2023-03-19T08:37:56.424Z,3.47
2023-03-19T08:40:24.759Z,3.22
2023-03-19T08:42:52.599Z,2.22
2023-03-19T08:45:20.797Z,3.22
2023-03-19T08:47:49.771Z,2.63
2023-03-19T08:50:19.261Z,2.33
2023-03-19T08:52:47.076Z,1.83
2023-03-19T08:55:15.958Z,2.65
2023-03-19T08:57:43.837Z,2.72
2023-03-19T09:00:12.703Z,3.47
2023-03-19T09:02:40.529Z,2.33
2023-03-19T09:05:09.185Z,2.70
2023-03-19T09:07:38.463Z,2.75
2023-03-19T09:10:07.511Z,3.25
2023-03-19T09:12:35.646Z,2.63
2023-03-19T09:15:03.674Z,2.75
2023-03-19T09:17:31.556Z,3.20
2023-03-19T09:19:59.333Z,2.85
2023-03-19T09:22:27.348Z,2.58
2023-03-19T09:24:56.606Z,2.80
2023-03-19T09:27:25.455Z,2.90
2023-03-19T09:29:53.253Z,2.72
2023-03-19T09:32:21.644Z,2.38
2023-03-19T09:34:49.458Z,3.40
2023-03-19T09:37:17.401Z,1.98
2023-03-19T09:39:45.273Z,2.28
2023-03-19T09:42:30.535Z,3.28
2023-03-19T09:44:58.888Z,3.28
2023-03-19T09:47:29.617Z,2.58
2023-03-19T09:49:59.473Z,2.30
2023-03-19T09:52:36.147Z,3.50
2023-03-19T09:55:16.597Z,3.30
2023-03-19T09:57:46.505Z,3.03
2023-03-19T10:00:23.310Z,3.72
2023-03-19T10:02:57.931Z,2.38
2023-03-19T10:05:42.517Z,3.40
2023-03-19T10:08:38.567Z,2.15
2023-03-19T10:11:30.763Z,2.25
2023-03-19T10:14:14.661Z,2.33
2023-03-19T10:16:47.410Z,2.67
2023-03-19T10:19:19.781Z,3.50
2023-03-19T10:21:53.720Z,2.85
2023-03-19T10:24:27.715Z,2.90
2023-03-19T10:27:00.232Z,3.00
2023-03-19T10:29:29.934Z,2.83
2023-03-19T10:32:07.665Z,2.83
2023-03-19T10:34:37.706Z,2.90
2023-03-19T10:37:08.125Z,2.83
2023-03-19T10:39:37.841Z,2.60
2023-03-19T10:42:20.117Z,2.90
2023-03-19T10:44:52.421Z,3.03
2023-03-19T10:47:22.679Z,2.80
2023-03-19T10:49:51.917Z,3.65
2023-03-19T10:52:25.113Z,2.85
2023-03-19T10:54:57.317Z,2.22
2023-03-19T10:57:28.849Z,2.42
2023-03-19T11:00:04.380Z,3.20
2023-03-19T11:02:33.471Z,2.28
2023-03-19T11:05:23.105Z,2.85
2023-03-19T11:07:52.296Z,3.08
2023-03-19T11:10:23.985Z,3.05
2023-03-19T11:12:56.008Z,3.50
2023-03-19T11:15:29.920Z,3.97
2023-03-19T11:17:59.570Z,2.42
2023-03-19T11:20:33.487Z,2.88
2023-03-19T11:23:04.170Z,2.70
2023-03-19T11:25:37.384Z,2.58
2023-03-19T11:28:09.520Z,3.80
2023-03-19T11:30:52.938Z,2.58
2023-03-19T11:33:53.108Z,2.60
2023-03-19T11:36:25.253Z,2.97
2023-03-19T11:39:09.485Z,4.00
2023-03-19T11:41:50.852Z,2.88
2023-03-19T11:44:23.421Z,3.28
2023-03-19T11:49:39.072Z,2.92
2023-03-19T11:52:17.554Z,3.08
2023-03-19T11:54:55.129Z,4.53
2023-03-19T11:57:34.615Z,2.90
2023-03-19T12:00:23.790Z,4.05
2023-03-19T12:03:22.258Z,3.53
2023-03-19T12:05:57.780Z,3.88
2023-03-19T12:08:34.678Z,2.85
2023-03-19T12:11:11.184Z,3.95
2023-03-19T12:13:50.010Z,4.50
2023-03-19T12:16:27.626Z,3.72
2023-03-19T12:19:12.887Z,3.78
2023-03-19T12:21:55.593Z,3.50
2023-03-19T12:24:33.469Z,3.95
2023-03-19T12:27:20.645Z,3.30
2023-03-19T12:29:55.902Z,3.42
2023-03-19T12:32:37.866Z,2.88
2023-03-19T12:35:13.024Z,3.58
2023-03-19T12:37:46.140Z,3.47
2023-03-19T12:40:27.310Z,5.68
2023-03-19T12:42:59.651Z,3.05
2023-03-19T12:45:31.893Z,3.22
2023-03-19T12:48:07.225Z,4.78
2023-03-19T12:50:40.599Z,6.50
2023-03-19T12:53:17.681Z,4.05
2023-03-19T12:55:55.593Z,3.42
2023-03-19T12:58:31.341Z,4.72
2023-03-19T13:01:07.348Z,5.32
2023-03-19T13:03:42.873Z,4.68
2023-03-19T13:06:17.338Z,4.75
2023-03-19T13:08:50.006Z,4.88
2023-03-19T13:11:26.598Z,4.38
2023-03-19T13:14:02.060Z,4.57
2023-03-19T13:16:39.167Z,4.57
2023-03-19T13:19:18.072Z,3.53
2023-03-19T13:21:49.892Z,4.10
2023-03-19T13:24:22.853Z,4.55
2023-03-19T13:26:51.424Z,4.13
2023-03-19T13:29:22.109Z,3.92
2023-03-19T13:31:50.850Z,3.63
2023-03-19T13:34:39.658Z,4.03
2023-03-19T13:37:15.059Z,4.32
2023-03-19T13:39:44.506Z,3.70
2023-03-19T13:42:35.576Z,4.35
2023-03-19T13:45:05.919Z,4.40
2023-03-19T13:47:44.063Z,5.10
2023-03-19T13:50:23.696Z,4.68
2023-03-19T13:52:57.066Z,4.18
2023-03-19T13:55:34.390Z,4.10
2023-03-19T13:58:38.048Z,3.97
2023-03-19T14:01:06.737Z,4.20
2023-03-19T14:03:36.695Z,4.57
2023-03-19T14:06:05.766Z,4.47
2023-03-19T14:08:47.279Z,3.70
2023-03-19T14:11:24.559Z,4.68
2023-03-19T14:13:54.266Z,3.78
2023-03-19T14:16:26.821Z,3.70
2023-03-19T14:18:58.744Z,3.83
2023-03-19T14:21:36.090Z,4.00
2023-03-19T14:27:24.042Z,3.72
2023-03-19T14:29:52.855Z,3.97
2023-03-19T14:32:25.279Z,3.60
2023-03-19T14:34:55.344Z,4.70
2023-03-19T14:37:25.050Z,3.90
2023-03-19T14:39:59.486Z,3.88
2023-03-19T14:42:33.688Z,4.00
2023-03-19T14:45:34.224Z,4.80
2023-03-19T14:48:13.991Z,3.90
2023-03-19T14:50:54.965Z,4.15
2023-03-19T14:53:26.441Z,3.72
2023-03-19T14:55:55.724Z,4.40
2023-03-19T14:58:24.146Z,4.40
2023-03-19T15:00:54.811Z,4.63
2023-03-19T15:03:25.860Z,5.03
2023-03-19T15:05:58.575Z,5.15
2023-03-19T15:08:27.755Z,5.50
2023-03-19T15:11:09.939Z,5.93
2023-03-19T15:13:52.948Z,4.55
2023-03-19T15:16:33.074Z,4.60
2023-03-19T15:19:01.957Z,4.97
2023-03-19T15:21:30.987Z,5.15
2023-03-19T15:23:59.324Z,4.57
2023-03-19T15:26:34.411Z,4.68
2023-03-19T15:29:04.431Z,5.22
2023-03-19T15:31:52.584Z,5.70
2023-03-19T15:34:27.784Z,5.35
2023-03-19T15:37:00.713Z,6.63
2023-03-19T15:42:02.108Z,5.50
2023-03-19T15:44:36.485Z,5.30
2023-03-19T15:47:06.843Z,6.20
2023-03-19T15:49:39.253Z,6.30
2023-03-19T15:52:12.720Z,5.05
2023-03-19T15:54:41.164Z,4.43
2023-03-19T15:57:13.962Z,4.70
2023-03-19T16:02:23.008Z,3.95
2023-03-19T16:05:18.148Z,3.92
2023-03-19T16:07:43.566Z,3.83
2023-03-19T16:10:34.100Z,3.72
2023-03-19T16:13:05.663Z,3.75
2023-03-19T16:15:43.614Z,4.93
2023-03-19T16:18:24.515Z,3.60
2023-03-19T16:21:02.950Z,3.92
2023-03-19T16:23:34.098Z,3.75
2023-03-19T16:26:17.906Z,3.85
2023-03-19T16:28:56.480Z,3.97
2023-03-19T16:31:28.811Z,4.93
2023-03-19T16:33:57.329Z,3.67
2023-03-19T16:36:29.654Z,4.43
2023-03-19T16:38:59.768Z,4.70
2023-03-19T16:41:34.302Z,3.40
2023-03-19T16:44:14.382Z,3.80
2023-03-19T16:46:42.546Z,4.63
2023-03-19T16:49:10.608Z,3.88
2023-03-19T16:51:39.451Z,3.90
2023-03-19T16:54:07.610Z,3.53
2023-03-19T16:56:36.440Z,3.75
2023-03-19T16:59:05.735Z,3.20
2023-03-19T17:01:33.782Z,3.60
2023-03-19T17:04:01.722Z,5.88
2023-03-19T17:06:34.370Z,13.85
2023-03-19T17:09:02.297Z,20.67
2023-03-19T17:11:33.744Z,15.93
2023-03-19T17:14:02.240Z,10.07
2023-03-19T17:16:31.541Z,6.85
2023-03-19T17:19:02.656Z,5.03
2023-03-19T17:21:33.504Z,4.90
2023-03-19T17:24:16.580Z,3.33
2023-03-19T17:26:44.481Z,3.70
2023-03-19T17:29:12.318Z,4.65
2023-03-19T17:31:44.271Z,4.30
2023-03-19T17:34:14.855Z,3.60
2023-03-19T17:36:45.581Z,3.67
2023-03-19T17:39:13.490Z,3.53
2023-03-19T17:41:41.341Z,3.47
2023-03-19T17:44:09.780Z,3.85
2023-03-19T17:46:41.011Z,3.45
2023-03-19T17:49:16.921Z,3.42
2023-03-19T17:51:44.812Z,3.42
2023-03-19T17:54:13.547Z,3.90
2023-03-19T17:56:43.351Z,4.15
2023-03-19T17:59:11.246Z,2.55
2023-03-19T18:01:42.992Z,3.30
2023-03-19T18:04:15.050Z,2.85
2023-03-19T18:06:45.643Z,2.87
2023-03-19T18:09:20.504Z,3.70
2023-03-19T18:11:48.652Z,4.13
2023-03-19T18:14:16.579Z,4.18
2023-03-19T18:16:47.492Z,4.00
2023-03-19T18:19:23.023Z,3.70
2023-03-19T18:21:51.361Z,4.80
2023-03-19T18:24:19.329Z,3.70
2023-03-19T18:26:47.196Z,3.97
2023-03-19T18:29:16.260Z,5.50
2023-03-19T18:31:46.494Z,4.70
2023-03-19T18:34:16.668Z,3.78
2023-03-19T18:36:46.215Z,4.82
2023-03-19T18:39:16.272Z,4.70
2023-03-19T18:41:44.872Z,4.07
2023-03-19T18:44:13.804Z,3.95
2023-03-19T18:46:42.967Z,4.22
2023-03-19T18:49:20.030Z,3.25
2023-03-19T18:52:01.721Z,4.47
2023-03-19T18:54:31.966Z,3.63
2023-03-19T18:57:01.292Z,3.50
2023-03-19T18:59:32.665Z,3.95
2023-03-19T19:02:02.717Z,3.97
2023-03-19T19:04:31.240Z,3.40
2023-03-19T19:07:01.696Z,3.20
2023-03-19T19:09:29.718Z,3.42
2023-03-19T19:12:00.837Z,4.45
2023-03-19T19:14:29.159Z,3.78
2023-03-19T19:16:57.118Z,4.70
2023-03-19T19:19:27.681Z,3.72
2023-03-19T19:21:55.676Z,4.30
2023-03-19T19:24:25.029Z,3.90
2023-03-19T19:26:54.187Z,4.47
2023-03-19T19:29:28.350Z,4.30
2023-03-19T19:31:57.074Z,3.92
2023-03-19T19:34:25.535Z,3.67
2023-03-19T19:36:58.949Z,4.05
2023-03-19T19:39:30.778Z,4.35
2023-03-19T19:41:59.070Z,3.97
2023-03-19T19:44:27.238Z,4.18
2023-03-19T19:46:55.829Z,4.60
2023-03-19T19:49:25.366Z,4.20
2023-03-19T19:51:53.636Z,5.88
2023-03-19T19:54:25.010Z,4.97
2023-03-19T19:56:55.307Z,4.78
2023-03-19T19:59:26.315Z,5.82
2023-03-19T20:01:54.549Z,5.82
2023-03-19T20:04:25.750Z,7.63
2023-03-19T20:06:54.278Z,7.53
2023-03-19T20:09:22.322Z,9.20
2023-03-19T20:11:50.603Z,10.40
2023-03-19T20:14:20.169Z,9.73
2023-03-19T20:16:49.017Z,9.35
2023-03-19T20:19:20.807Z,11.73
2023-03-19T20:21:48.728Z,11.25
2023-03-19T20:24:16.809Z,10.80
2023-03-19T20:26:45.073Z,10.43
2023-03-19T20:29:15.981Z,10.65
2023-03-19T20:31:47.605Z,10.05
2023-03-19T20:34:32.457Z,10.63
2023-03-19T20:37:07.368Z,10.52
2023-03-19T20:39:37.508Z,9.27
2023-03-19T20:42:14.341Z,11.00
2023-03-19T20:44:43.082Z,10.30
2023-03-19T20:47:18.282Z,12.80
2023-03-19T20:49:46.882Z,11.02
2023-03-19T20:52:16.356Z,12.48
2023-03-19T20:54:44.821Z,13.00
2023-03-19T20:57:14.552Z,11.48
2023-03-19T20:59:44.404Z,12.43
2023-03-19T21:02:19.264Z,12.63
2023-03-19T21:04:47.667Z,12.40
2023-03-19T21:07:33.613Z,11.18
2023-03-19T21:10:05.291Z,11.68
2023-03-19T21:12:36.083Z,11.55
2023-03-19T21:15:04.686Z,11.35
2023-03-19T21:17:34.302Z,11.88
2023-03-19T21:20:02.228Z,10.98
2023-03-19T21:22:32.402Z,11.13
2023-03-19T21:25:04.423Z,11.63
2023-03-19T21:27:34.990Z,11.33
2023-03-19T21:30:04.857Z,12.25
2023-03-19T21:32:34.132Z,11.50
2023-03-19T21:35:02.446Z,11.95
2023-03-19T21:37:30.441Z,13.40
2023-03-19T21:39:58.493Z,13.45
2023-03-19T21:42:27.114Z,12.20
2023-03-19T21:44:59.876Z,12.02
2023-03-19T21:50:00.214Z,10.85
2023-03-19T21:52:28.198Z,11.15
2023-03-19T21:54:56.031Z,12.02
2023-03-19T21:57:24.429Z,12.98
2023-03-19T21:59:52.312Z,13.40
2023-03-19T22:02:40.035Z,14.68
2023-03-19T22:05:24.165Z,13.98
2023-03-19T22:07:52.877Z,15.10
2023-03-19T22:10:24.983Z,11.43
2023-03-19T22:12:54.420Z,13.25
2023-03-19T22:15:35.318Z,12.10
2023-03-19T22:18:03.854Z,11.18
2023-03-19T22:20:33.170Z,11.73
2023-03-19T22:23:01.029Z,11.27
2023-03-19T22:25:33.305Z,9.25
2023-03-19T22:28:01.308Z,8.65
2023-03-19T22:30:36.103Z,8.45
2023-03-19T22:33:05.155Z,7.60
2023-03-19T22:35:34.926Z,8.02
2023-03-19T22:38:02.952Z,6.43
2023-03-19T22:40:30.838Z,6.20
2023-03-19T22:42:58.819Z,6.32
2023-03-19T22:45:28.989Z,6.63
2023-03-19T22:47:58.332Z,6.75
2023-03-19T22:50:28.491Z,6.05
2023-03-19T22:52:59.103Z,7.45
2023-03-19T22:55:27.121Z,6.50
2023-03-19T22:57:54.935Z,5.95
2023-03-19T23:00:23.837Z,6.47
2023-03-19T23:02:56.840Z,6.45
2023-03-19T23:05:28.605Z,5.82
2023-03-19T23:07:58.110Z,6.70
2023-03-19T23:10:28.609Z,5.75
2023-03-19T23:12:57.556Z,5.68
2023-03-19T23:15:27.082Z,5.97
2023-03-19T23:17:58.632Z,5.55
2023-03-19T23:20:28.794Z,5.97
2023-03-19T23:22:58.308Z,5.75
2023-03-19T23:25:28.489Z,5.82
2023-03-19T23:27:59.822Z,5.85
2023-03-19T23:30:31.608Z,6.72
2023-03-19T23:33:02.663Z,6.75
2023-03-19T23:35:32.333Z,6.72
2023-03-19T23:38:01.695Z,6.57
2023-03-19T23:40:33.178Z,7.93
2023-03-19T23:43:02.444Z,6.85
2023-03-19T23:45:34.729Z,7.63
2023-03-19T23:48:05.119Z,6.80
2023-03-19T23:50:33.970Z,8.25
2023-03-19T23:53:03.478Z,7.50
2023-03-19T23:55:32.754Z,8.40
2023-03-19T23:58:02.328Z,6.43
